sensor_id;sensor_type;location;lat;lon;timestamp;P1;durP1;ratioP1;P2;durP2;ratioP2
74064;SDS011;62421;51.412;5.432;2022-12-04T00:00:05;61.97;;;20.83;;
74064;SDS011;62421;51.412;5.432;2022-12-04T00:02:32;74.95;;;27.73;;
74064;SDS011;62421;51.412;5.432;2022-12-04T00:04:58;70.27;;;24.63;;
74064;SDS011;62421;51.412;5.432;2022-12-04T00:07:23;65.30;;;24.73;;
74064;SDS011;62421;51.412;5.432;2022-12-04T00:09:48;62.77;;;25.00;;
74064;SDS011;62421;51.412;5.432;2022-12-04T00:12:14;68.53;;;23.30;;
74064;SDS011;62421;51.412;5.432;2022-12-04T00:14:40;70.75;;;26.15;;
74064;SDS011;62421;51.412;5.432;2022-12-04T00:17:06;65.53;;;24.60;;
74064;SDS011;62421;51.412;5.432;2022-12-04T00:19:31;57.23;;;21.13;;
74064;SDS011;62421;51.412;5.432;2022-12-04T00:21:56;51.87;;;18.93;;
74064;SDS011;62421;51.412;5.432;2022-12-04T00:24:21;68.43;;;25.53;;
74064;SDS011;62421;51.412;5.432;2022-12-04T00:26:47;74.90;;;32.37;;
74064;SDS011;62421;51.412;5.432;2022-12-04T00:29:12;70.67;;;26.60;;
74064;SDS011;62421;51.412;5.432;2022-12-04T00:31:38;70.33;;;23.73;;
74064;SDS011;62421;51.412;5.432;2022-12-04T00:34:04;68.28;;;26.27;;
74064;SDS011;62421;51.412;5.432;2022-12-04T00:36:29;71.73;;;25.73;;
74064;SDS011;62421;51.412;5.432;2022-12-04T00:38:55;63.87;;;25.13;;
74064;SDS011;62421;51.412;5.432;2022-12-04T00:41:24;55.22;;;21.50;;
74064;SDS011;62421;51.412;5.432;2022-12-04T00:43:50;67.95;;;24.00;;
74064;SDS011;62421;51.412;5.432;2022-12-04T00:46:16;60.57;;;22.47;;
74064;SDS011;62421;51.412;5.432;2022-12-04T00:48:43;60.72;;;22.15;;
74064;SDS011;62421;51.412;5.432;2022-12-04T00:51:14;63.72;;;21.65;;
74064;SDS011;62421;51.412;5.432;2022-12-04T00:53:40;71.20;;;31.20;;
74064;SDS011;62421;51.412;5.432;2022-12-04T00:56:07;75.78;;;28.23;;
74064;SDS011;62421;51.412;5.432;2022-12-04T00:58:35;72.38;;;25.45;;
74064;SDS011;62421;51.412;5.432;2022-12-04T01:01:01;76.63;;;33.43;;
74064;SDS011;62421;51.412;5.432;2022-12-04T01:03:28;63.67;;;24.75;;
74064;SDS011;62421;51.412;5.432;2022-12-04T01:05:53;67.33;;;26.20;;
74064;SDS011;62421;51.412;5.432;2022-12-04T01:08:19;70.13;;;24.23;;
74064;SDS011;62421;51.412;5.432;2022-12-04T01:10:44;67.10;;;24.17;;
74064;SDS011;62421;51.412;5.432;2022-12-04T01:13:09;67.23;;;24.20;;
74064;SDS011;62421;51.412;5.432;2022-12-04T01:15:41;69.20;;;23.90;;
74064;SDS011;62421;51.412;5.432;2022-12-04T01:18:08;66.00;;;24.00;;
74064;SDS011;62421;51.412;5.432;2022-12-04T01:20:34;71.53;;;27.95;;
74064;SDS011;62421;51.412;5.432;2022-12-04T01:23:00;63.13;;;25.10;;
74064;SDS011;62421;51.412;5.432;2022-12-04T01:25:25;63.93;;;25.60;;
74064;SDS011;62421;51.412;5.432;2022-12-04T01:27:50;70.97;;;25.17;;
74064;SDS011;62421;51.412;5.432;2022-12-04T01:30:16;66.27;;;25.03;;
74064;SDS011;62421;51.412;5.432;2022-12-04T01:32:41;71.57;;;25.43;;
74064;SDS011;62421;51.412;5.432;2022-12-04T01:35:06;71.07;;;28.20;;
74064;SDS011;62421;51.412;5.432;2022-12-04T01:37:32;65.15;;;23.70;;
74064;SDS011;62421;51.412;5.432;2022-12-04T01:39:58;67.40;;;25.77;;
74064;SDS011;62421;51.412;5.432;2022-12-04T01:42:23;66.40;;;25.23;;
74064;SDS011;62421;51.412;5.432;2022-12-04T01:47:54;84.10;;;31.27;;
74064;SDS011;62421;51.412;5.432;2022-12-04T01:50:24;63.50;;;23.15;;
74064;SDS011;62421;51.412;5.432;2022-12-04T01:52:49;69.83;;;24.63;;
74064;SDS011;62421;51.412;5.432;2022-12-04T01:55:15;58.43;;;22.57;;
74064;SDS011;62421;51.412;5.432;2022-12-04T01:57:41;60.75;;;22.75;;
74064;SDS011;62421;51.412;5.432;2022-12-04T02:00:08;57.60;;;24.73;;
74064;SDS011;62421;51.412;5.432;2022-12-04T02:02:36;58.35;;;21.90;;
74064;SDS011;62421;51.412;5.432;2022-12-04T02:05:06;67.13;;;26.67;;
74064;SDS011;62421;51.412;5.432;2022-12-04T02:07:33;63.80;;;22.83;;
74064;SDS011;62421;51.412;5.432;2022-12-04T02:09:59;63.55;;;25.23;;
74064;SDS011;62421;51.412;5.432;2022-12-04T02:12:46;59.40;;;23.65;;
74064;SDS011;62421;51.412;5.432;2022-12-04T02:15:28;65.80;;;24.90;;
74064;SDS011;62421;51.412;5.432;2022-12-04T02:26:32;61.77;;;21.90;;
74064;SDS011;62421;51.412;5.432;2022-12-04T02:31:37;58.83;;;23.27;;
74064;SDS011;62421;51.412;5.432;2022-12-04T02:34:12;67.50;;;24.67;;
74064;SDS011;62421;51.412;5.432;2022-12-04T02:37:00;71.67;;;26.57;;
74064;SDS011;62421;51.412;5.432;2022-12-04T02:40:12;62.67;;;23.98;;
74064;SDS011;62421;51.412;5.432;2022-12-04T02:42:30;64.82;;;26.92;;
74064;SDS011;62421;51.412;5.432;2022-12-04T02:45:04;63.35;;;26.42;;
74064;SDS011;62421;51.412;5.432;2022-12-04T02:47:33;57.73;;;24.03;;
74064;SDS011;62421;51.412;5.432;2022-12-04T02:50:04;61.00;;;22.10;;
74064;SDS011;62421;51.412;5.432;2022-12-04T02:52:37;68.30;;;25.20;;
74064;SDS011;62421;51.412;5.432;2022-12-04T02:55:08;61.13;;;23.13;;
74064;SDS011;62421;51.412;5.432;2022-12-04T02:57:39;68.37;;;26.80;;
74064;SDS011;62421;51.412;5.432;2022-12-04T03:00:08;60.80;;;24.77;;
74064;SDS011;62421;51.412;5.432;2022-12-04T03:02:40;68.55;;;26.30;;
74064;SDS011;62421;51.412;5.432;2022-12-04T03:05:14;66.65;;;25.60;;
74064;SDS011;62421;51.412;5.432;2022-12-04T03:07:43;63.60;;;24.10;;
74064;SDS011;62421;51.412;5.432;2022-12-04T03:10:14;61.92;;;21.35;;
74064;SDS011;62421;51.412;5.432;2022-12-04T03:12:53;51.35;;;21.95;;
74064;SDS011;62421;51.412;5.432;2022-12-04T03:15:29;68.50;;;25.85;;
74064;SDS011;62421;51.412;5.432;2022-12-04T03:18:05;71.50;;;28.03;;
74064;SDS011;62421;51.412;5.432;2022-12-04T03:20:45;63.47;;;25.17;;
74064;SDS011;62421;51.412;5.432;2022-12-04T03:23:15;55.70;;;22.83;;
74064;SDS011;62421;51.412;5.432;2022-12-04T03:25:46;71.45;;;28.17;;
74064;SDS011;62421;51.412;5.432;2022-12-04T03:28:22;64.93;;;23.33;;
74064;SDS011;62421;51.412;5.432;2022-12-04T03:30:54;66.95;;;25.83;;
74064;SDS011;62421;51.412;5.432;2022-12-04T03:33:28;74.45;;;31.40;;
74064;SDS011;62421;51.412;5.432;2022-12-04T03:36:05;70.55;;;24.55;;
74064;SDS011;62421;51.412;5.432;2022-12-04T03:38:54;74.63;;;30.63;;
74064;SDS011;62421;51.412;5.432;2022-12-04T03:41:24;70.15;;;27.17;;
74064;SDS011;62421;51.412;5.432;2022-12-04T03:43:56;78.28;;;31.85;;
74064;SDS011;62421;51.412;5.432;2022-12-04T03:46:26;68.45;;;26.08;;
74064;SDS011;62421;51.412;5.432;2022-12-04T03:51:47;75.38;;;30.77;;
74064;SDS011;62421;51.412;5.432;2022-12-04T03:54:41;78.72;;;27.42;;
74064;SDS011;62421;51.412;5.432;2022-12-04T03:57:13;72.85;;;26.52;;
74064;SDS011;62421;51.412;5.432;2022-12-04T03:59:45;63.38;;;24.23;;
74064;SDS011;62421;51.412;5.432;2022-12-04T04:02:31;68.70;;;27.48;;
74064;SDS011;62421;51.412;5.432;2022-12-04T04:04:59;73.22;;;27.10;;
74064;SDS011;62421;51.412;5.432;2022-12-04T04:07:32;67.53;;;26.60;;
74064;SDS011;62421;51.412;5.432;2022-12-04T04:10:19;67.13;;;24.67;;
74064;SDS011;62421;51.412;5.432;2022-12-04T04:12:59;58.72;;;24.13;;
74064;SDS011;62421;51.412;5.432;2022-12-04T04:15:46;49.70;;;23.77;;
74064;SDS011;62421;51.412;5.432;2022-12-04T04:18:35;69.65;;;26.85;;
74064;SDS011;62421;51.412;5.432;2022-12-04T04:21:22;65.80;;;26.23;;
74064;SDS011;62421;51.412;5.432;2022-12-04T04:24:10;67.70;;;24.65;;
74064;SDS011;62421;51.412;5.432;2022-12-04T04:26:48;65.95;;;24.95;;
74064;SDS011;62421;51.412;5.432;2022-12-04T04:29:13;69.03;;;25.93;;
74064;SDS011;62421;51.412;5.432;2022-12-04T04:32:13;64.45;;;24.65;;
74064;SDS011;62421;51.412;5.432;2022-12-04T04:40:11;70.95;;;28.98;;
74064;SDS011;62421;51.412;5.432;2022-12-04T04:45:48;64.65;;;24.67;;
74064;SDS011;62421;51.412;5.432;2022-12-04T04:48:22;63.88;;;25.40;;
74064;SDS011;62421;51.412;5.432;2022-12-04T04:50:53;66.65;;;28.10;;
74064;SDS011;62421;51.412;5.432;2022-12-04T04:53:20;73.47;;;30.33;;
74064;SDS011;62421;51.412;5.432;2022-12-04T04:55:50;64.37;;;24.77;;
74064;SDS011;62421;51.412;5.432;2022-12-04T04:58:17;74.97;;;30.42;;
74064;SDS011;62421;51.412;5.432;2022-12-04T05:00:50;74.13;;;28.85;;
74064;SDS011;62421;51.412;5.432;2022-12-04T05:03:25;64.00;;;25.27;;
74064;SDS011;62421;51.412;5.432;2022-12-04T05:05:51;79.82;;;30.52;;
74064;SDS011;62421;51.412;5.432;2022-12-04T05:08:17;71.73;;;26.50;;
74064;SDS011;62421;51.412;5.432;2022-12-04T05:10:42;74.67;;;26.00;;
74064;SDS011;62421;51.412;5.432;2022-12-04T05:13:08;67.15;;;25.23;;
74064;SDS011;62421;51.412;5.432;2022-12-04T05:15:35;69.47;;;24.92;;
74064;SDS011;62421;51.412;5.432;2022-12-04T05:18:01;70.83;;;27.93;;
74064;SDS011;62421;51.412;5.432;2022-12-04T05:20:26;69.90;;;29.57;;
74064;SDS011;62421;51.412;5.432;2022-12-04T05:22:51;62.03;;;22.92;;
74064;SDS011;62421;51.412;5.432;2022-12-04T05:25:17;78.47;;;35.08;;
74064;SDS011;62421;51.412;5.432;2022-12-04T05:27:43;68.97;;;30.53;;
74064;SDS011;62421;51.412;5.432;2022-12-04T05:30:08;68.27;;;28.10;;
74064;SDS011;62421;51.412;5.432;2022-12-04T05:32:34;71.22;;;26.80;;
74064;SDS011;62421;51.412;5.432;2022-12-04T05:35:00;81.63;;;30.47;;
74064;SDS011;62421;51.412;5.432;2022-12-04T05:37:25;72.10;;;27.63;;
74064;SDS011;62421;51.412;5.432;2022-12-04T05:39:50;64.37;;;24.97;;
74064;SDS011;62421;51.412;5.432;2022-12-04T05:42:19;67.22;;;26.25;;
74064;SDS011;62421;51.412;5.432;2022-12-04T05:44:44;70.57;;;29.27;;
74064;SDS011;62421;51.412;5.432;2022-12-04T05:47:09;67.80;;;27.30;;
74064;SDS011;62421;51.412;5.432;2022-12-04T05:49:35;69.13;;;24.63;;
74064;SDS011;62421;51.412;5.432;2022-12-04T05:52:00;71.73;;;29.43;;
74064;SDS011;62421;51.412;5.432;2022-12-04T05:54:27;70.82;;;30.38;;
74064;SDS011;62421;51.412;5.432;2022-12-04T05:56:52;65.50;;;25.90;;
74064;SDS011;62421;51.412;5.432;2022-12-04T05:59:18;78.30;;;28.30;;
74064;SDS011;62421;51.412;5.432;2022-12-04T06:01:43;70.60;;;26.07;;
74064;SDS011;62421;51.412;5.432;2022-12-04T06:04:09;68.18;;;29.42;;
74064;SDS011;62421;51.412;5.432;2022-12-04T06:06:35;76.95;;;31.88;;
74064;SDS011;62421;51.412;5.432;2022-12-04T06:09:02;71.07;;;29.02;;
74064;SDS011;62421;51.412;5.432;2022-12-04T06:11:29;78.28;;;28.98;;
74064;SDS011;62421;51.412;5.432;2022-12-04T06:13:57;69.90;;;26.27;;
74064;SDS011;62421;51.412;5.432;2022-12-04T06:16:25;71.00;;;26.00;;
74064;SDS011;62421;51.412;5.432;2022-12-04T06:18:57;73.93;;;25.23;;
74064;SDS011;62421;51.412;5.432;2022-12-04T06:21:24;60.80;;;24.63;;
74064;SDS011;62421;51.412;5.432;2022-12-04T06:23:52;68.55;;;23.83;;
74064;SDS011;62421;51.412;5.432;2022-12-04T06:26:17;74.50;;;29.50;;
74064;SDS011;62421;51.412;5.432;2022-12-04T06:28:43;76.82;;;27.70;;
74064;SDS011;62421;51.412;5.432;2022-12-04T06:31:10;71.43;;;25.33;;
74064;SDS011;62421;51.412;5.432;2022-12-04T06:33:37;73.40;;;26.98;;
74064;SDS011;62421;51.412;5.432;2022-12-04T06:36:04;71.15;;;29.08;;
74064;SDS011;62421;51.412;5.432;2022-12-04T06:38:32;74.15;;;29.63;;
74064;SDS011;62421;51.412;5.432;2022-12-04T06:40:58;77.47;;;28.95;;
74064;SDS011;62421;51.412;5.432;2022-12-04T06:43:23;68.28;;;24.65;;
74064;SDS011;62421;51.412;5.432;2022-12-04T06:46:11;71.38;;;30.58;;
74064;SDS011;62421;51.412;5.432;2022-12-04T06:48:36;63.67;;;24.30;;
74064;SDS011;62421;51.412;5.432;2022-12-04T06:51:03;67.03;;;26.30;;
74064;SDS011;62421;51.412;5.432;2022-12-04T06:53:49;69.05;;;28.95;;
74064;SDS011;62421;51.412;5.432;2022-12-04T06:56:15;71.83;;;26.73;;
74064;SDS011;62421;51.412;5.432;2022-12-04T06:58:45;77.03;;;31.52;;
74064;SDS011;62421;51.412;5.432;2022-12-04T07:01:13;73.28;;;27.25;;
74064;SDS011;62421;51.412;5.432;2022-12-04T07:03:41;78.37;;;34.10;;
74064;SDS011;62421;51.412;5.432;2022-12-04T07:08:35;74.78;;;26.40;;
74064;SDS011;62421;51.412;5.432;2022-12-04T07:11:01;65.43;;;25.10;;
74064;SDS011;62421;51.412;5.432;2022-12-04T07:13:26;65.40;;;27.57;;
74064;SDS011;62421;51.412;5.432;2022-12-04T07:15:51;68.40;;;26.70;;
74064;SDS011;62421;51.412;5.432;2022-12-04T07:18:17;76.73;;;27.47;;
74064;SDS011;62421;51.412;5.432;2022-12-04T07:20:42;66.63;;;25.15;;
74064;SDS011;62421;51.412;5.432;2022-12-04T07:23:07;62.58;;;24.05;;
74064;SDS011;62421;51.412;5.432;2022-12-04T07:25:33;70.00;;;31.50;;
74064;SDS011;62421;51.412;5.432;2022-12-04T07:28:03;68.38;;;25.75;;
74064;SDS011;62421;51.412;5.432;2022-12-04T07:30:29;66.18;;;25.27;;
74064;SDS011;62421;51.412;5.432;2022-12-04T07:32:54;67.50;;;28.67;;
74064;SDS011;62421;51.412;5.432;2022-12-04T07:35:20;68.97;;;27.80;;
74064;SDS011;62421;51.412;5.432;2022-12-04T07:37:45;70.17;;;28.60;;
74064;SDS011;62421;51.412;5.432;2022-12-04T07:40:10;67.43;;;30.77;;
74064;SDS011;62421;51.412;5.432;2022-12-04T07:42:36;66.22;;;26.25;;
74064;SDS011;62421;51.412;5.432;2022-12-04T07:45:01;64.80;;;25.93;;
74064;SDS011;62421;51.412;5.432;2022-12-04T07:47:27;68.63;;;26.27;;
74064;SDS011;62421;51.412;5.432;2022-12-04T07:49:52;66.63;;;28.70;;
74064;SDS011;62421;51.412;5.432;2022-12-04T07:52:17;60.33;;;24.20;;
74064;SDS011;62421;51.412;5.432;2022-12-04T07:54:43;60.17;;;23.20;;
74064;SDS011;62421;51.412;5.432;2022-12-04T07:57:08;65.60;;;25.27;;
74064;SDS011;62421;51.412;5.432;2022-12-04T07:59:33;61.27;;;26.50;;
74064;SDS011;62421;51.412;5.432;2022-12-04T08:01:59;59.23;;;22.87;;
74064;SDS011;62421;51.412;5.432;2022-12-04T08:04:24;62.87;;;22.97;;
74064;SDS011;62421;51.412;5.432;2022-12-04T08:06:49;56.67;;;23.63;;
74064;SDS011;62421;51.412;5.432;2022-12-04T08:09:14;65.33;;;27.27;;
74064;SDS011;62421;51.412;5.432;2022-12-04T08:11:40;58.00;;;22.47;;
74064;SDS011;62421;51.412;5.432;2022-12-04T08:14:06;55.42;;;23.08;;
74064;SDS011;62421;51.412;5.432;2022-12-04T08:16:32;60.50;;;25.70;;
74064;SDS011;62421;51.412;5.432;2022-12-04T08:18:58;56.87;;;25.00;;
74064;SDS011;62421;51.412;5.432;2022-12-04T08:21:25;49.97;;;21.23;;
74064;SDS011;62421;51.412;5.432;2022-12-04T08:23:52;51.72;;;22.23;;
74064;SDS011;62421;51.412;5.432;2022-12-04T08:26:19;63.95;;;23.33;;
74064;SDS011;62421;51.412;5.432;2022-12-04T08:28:46;58.17;;;24.37;;
74064;SDS011;62421;51.412;5.432;2022-12-04T08:31:14;58.28;;;27.95;;
74064;SDS011;62421;51.412;5.432;2022-12-04T08:33:41;48.17;;;20.75;;
74064;SDS011;62421;51.412;5.432;2022-12-04T08:36:08;52.80;;;22.73;;
74064;SDS011;62421;51.412;5.432;2022-12-04T08:38:36;58.42;;;23.95;;
74064;SDS011;62421;51.412;5.432;2022-12-04T08:41:02;57.35;;;22.90;;
74064;SDS011;62421;51.412;5.432;2022-12-04T08:43:29;59.38;;;22.75;;
74064;SDS011;62421;51.412;5.432;2022-12-04T08:45:55;53.85;;;26.35;;
74064;SDS011;62421;51.412;5.432;2022-12-04T08:48:22;50.17;;;19.98;;
74064;SDS011;62421;51.412;5.432;2022-12-04T08:50:47;50.70;;;22.77;;
74064;SDS011;62421;51.412;5.432;2022-12-04T08:53:12;46.93;;;21.13;;
74064;SDS011;62421;51.412;5.432;2022-12-04T08:55:38;51.73;;;21.70;;
74064;SDS011;62421;51.412;5.432;2022-12-04T08:58:03;53.13;;;21.47;;
74064;SDS011;62421;51.412;5.432;2022-12-04T09:00:28;48.07;;;20.13;;
74064;SDS011;62421;51.412;5.432;2022-12-04T09:02:55;54.53;;;24.50;;
74064;SDS011;62421;51.412;5.432;2022-12-04T09:05:21;52.30;;;23.33;;
74064;SDS011;62421;51.412;5.432;2022-12-04T09:07:46;50.87;;;24.13;;
74064;SDS011;62421;51.412;5.432;2022-12-04T09:10:11;54.17;;;23.33;;
74064;SDS011;62421;51.412;5.432;2022-12-04T09:12:37;49.10;;;22.77;;
74064;SDS011;62421;51.412;5.432;2022-12-04T09:15:02;54.28;;;20.92;;
74064;SDS011;62421;51.412;5.432;2022-12-04T09:17:28;44.40;;;19.77;;
74064;SDS011;62421;51.412;5.432;2022-12-04T09:19:53;49.97;;;21.93;;
74064;SDS011;62421;51.412;5.432;2022-12-04T09:22:19;46.00;;;19.20;;
74064;SDS011;62421;51.412;5.432;2022-12-04T09:24:44;44.50;;;19.30;;
74064;SDS011;62421;51.412;5.432;2022-12-04T09:27:09;41.70;;;18.37;;
74064;SDS011;62421;51.412;5.432;2022-12-04T09:29:34;49.13;;;20.43;;
74064;SDS011;62421;51.412;5.432;2022-12-04T09:32:00;40.47;;;16.53;;
74064;SDS011;62421;51.412;5.432;2022-12-04T09:34:25;40.27;;;18.07;;
74064;SDS011;62421;51.412;5.432;2022-12-04T09:36:50;49.13;;;20.87;;
74064;SDS011;62421;51.412;5.432;2022-12-04T09:39:16;43.27;;;18.90;;
74064;SDS011;62421;51.412;5.432;2022-12-04T09:49:16;42.10;;;17.80;;
74064;SDS011;62421;51.412;5.432;2022-12-04T09:51:46;33.95;;;14.10;;
74064;SDS011;62421;51.412;5.432;2022-12-04T09:54:16;37.38;;;15.90;;
74064;SDS011;62421;51.412;5.432;2022-12-04T09:57:11;33.65;;;15.60;;
74064;SDS011;62421;51.412;5.432;2022-12-04T09:59:39;36.53;;;14.63;;
74064;SDS011;62421;51.412;5.432;2022-12-04T10:04:36;37.80;;;17.40;;
74064;SDS011;62421;51.412;5.432;2022-12-04T10:15:00;44.17;;;17.10;;
74064;SDS011;62421;51.412;5.432;2022-12-04T10:23:31;48.95;;;17.35;;
74064;SDS011;62421;51.412;5.432;2022-12-04T10:25:48;45.83;;;19.75;;
74064;SDS011;62421;51.412;5.432;2022-12-04T10:31:01;42.40;;;20.75;;
74064;SDS011;62421;51.412;5.432;2022-12-04T10:33:31;43.43;;;18.30;;
74064;SDS011;62421;51.412;5.432;2022-12-04T10:36:02;45.22;;;23.13;;
74064;SDS011;62421;51.412;5.432;2022-12-04T10:38:38;45.22;;;20.60;;
74064;SDS011;62421;51.412;5.432;2022-12-04T10:43:56;46.77;;;19.47;;
74064;SDS011;62421;51.412;5.432;2022-12-04T10:46:26;44.33;;;19.00;;
74064;SDS011;62421;51.412;5.432;2022-12-04T10:48:55;49.42;;;21.50;;
74064;SDS011;62421;51.412;5.432;2022-12-04T10:51:23;41.65;;;18.67;;
74064;SDS011;62421;51.412;5.432;2022-12-04T10:53:49;48.38;;;21.20;;
74064;SDS011;62421;51.412;5.432;2022-12-04T10:56:17;45.87;;;19.03;;
74064;SDS011;62421;51.412;5.432;2022-12-04T10:58:54;47.22;;;22.95;;
74064;SDS011;62421;51.412;5.432;2022-12-04T11:01:23;47.30;;;21.58;;
74064;SDS011;62421;51.412;5.432;2022-12-04T11:04:01;46.40;;;23.80;;
74064;SDS011;62421;51.412;5.432;2022-12-04T11:06:29;45.65;;;19.02;;
74064;SDS011;62421;51.412;5.432;2022-12-04T11:08:55;50.58;;;21.50;;
74064;SDS011;62421;51.412;5.432;2022-12-04T11:11:23;44.45;;;22.10;;
74064;SDS011;62421;51.412;5.432;2022-12-04T11:16:45;50.05;;;23.40;;
74064;SDS011;62421;51.412;5.432;2022-12-04T11:19:24;46.40;;;21.23;;
74064;SDS011;62421;51.412;5.432;2022-12-04T11:21:51;51.25;;;22.67;;
74064;SDS011;62421;51.412;5.432;2022-12-04T11:24:20;50.87;;;23.90;;
74064;SDS011;62421;51.412;5.432;2022-12-04T11:26:48;45.92;;;20.08;;
74064;SDS011;62421;51.412;5.432;2022-12-04T11:29:14;52.10;;;22.30;;
74064;SDS011;62421;51.412;5.432;2022-12-04T11:32:01;47.13;;;23.50;;
74064;SDS011;62421;51.412;5.432;2022-12-04T11:34:37;49.93;;;22.47;;
74064;SDS011;62421;51.412;5.432;2022-12-04T11:37:05;49.83;;;20.63;;
74064;SDS011;62421;51.412;5.432;2022-12-04T11:39:43;47.88;;;24.15;;
74064;SDS011;62421;51.412;5.432;2022-12-04T11:44:38;47.40;;;19.60;;
74064;SDS011;62421;51.412;5.432;2022-12-04T11:47:04;50.65;;;21.50;;
74064;SDS011;62421;51.412;5.432;2022-12-04T11:49:40;51.13;;;24.10;;
74064;SDS011;62421;51.412;5.432;2022-12-04T11:52:28;49.75;;;21.00;;
74064;SDS011;62421;51.412;5.432;2022-12-04T12:01:39;43.30;;;18.43;;
74064;SDS011;62421;51.412;5.432;2022-12-04T12:09:55;50.60;;;23.17;;
74064;SDS011;62421;51.412;5.432;2022-12-04T12:15:14;52.95;;;23.67;;
74064;SDS011;62421;51.412;5.432;2022-12-04T12:20:37;54.08;;;26.42;;
74064;SDS011;62421;51.412;5.432;2022-12-04T12:26:01;45.10;;;20.77;;
74064;SDS011;62421;51.412;5.432;2022-12-04T12:36:59;46.03;;;21.67;;
74064;SDS011;62421;51.412;5.432;2022-12-04T12:42:31;42.92;;;20.08;;
74064;SDS011;62421;51.412;5.432;2022-12-04T12:47:49;46.47;;;19.75;;
74064;SDS011;62421;51.412;5.432;2022-12-04T12:50:20;42.63;;;20.05;;
74064;SDS011;62421;51.412;5.432;2022-12-04T12:53:00;44.25;;;20.40;;
74064;SDS011;62421;51.412;5.432;2022-12-04T12:55:43;42.73;;;19.87;;
74064;SDS011;62421;51.412;5.432;2022-12-04T12:58:27;42.42;;;20.15;;
74064;SDS011;62421;51.412;5.432;2022-12-04T13:01:16;47.75;;;21.98;;
74064;SDS011;62421;51.412;5.432;2022-12-04T13:06:41;47.33;;;21.53;;
74064;SDS011;62421;51.412;5.432;2022-12-04T13:11:36;48.15;;;24.23;;
74064;SDS011;62421;51.412;5.432;2022-12-04T13:14:02;49.47;;;22.50;;
74064;SDS011;62421;51.412;5.432;2022-12-04T13:16:35;44.70;;;20.13;;
74064;SDS011;62421;51.412;5.432;2022-12-04T13:25:40;44.67;;;19.65;;
74064;SDS011;62421;51.412;5.432;2022-12-04T13:28:06;42.37;;;20.37;;
74064;SDS011;62421;51.412;5.432;2022-12-04T13:30:54;38.92;;;19.90;;
74064;SDS011;62421;51.412;5.432;2022-12-04T13:39:35;42.30;;;19.80;;
74064;SDS011;62421;51.412;5.432;2022-12-04T13:42:14;38.45;;;19.30;;
74064;SDS011;62421;51.412;5.432;2022-12-04T13:44:51;42.63;;;20.73;;
74064;SDS011;62421;51.412;5.432;2022-12-04T13:47:25;40.72;;;18.35;;
74064;SDS011;62421;51.412;5.432;2022-12-04T13:50:04;48.30;;;21.03;;
74064;SDS011;62421;51.412;5.432;2022-12-04T13:52:37;39.78;;;17.92;;
74064;SDS011;62421;51.412;5.432;2022-12-04T13:55:21;41.97;;;18.92;;
74064;SDS011;62421;51.412;5.432;2022-12-04T13:57:56;39.40;;;17.70;;
74064;SDS011;62421;51.412;5.432;2022-12-04T14:00:34;42.17;;;18.47;;
74064;SDS011;62421;51.412;5.432;2022-12-04T14:03:04;43.33;;;17.88;;
74064;SDS011;62421;51.412;5.432;2022-12-04T14:05:45;41.45;;;18.80;;
74064;SDS011;62421;51.412;5.432;2022-12-04T14:10:43;38.33;;;19.03;;
74064;SDS011;62421;51.412;5.432;2022-12-04T14:13:21;41.85;;;19.48;;
74064;SDS011;62421;51.412;5.432;2022-12-04T14:16:01;42.33;;;18.55;;
74064;SDS011;62421;51.412;5.432;2022-12-04T14:18:29;38.72;;;17.60;;
74064;SDS011;62421;51.412;5.432;2022-12-04T14:20:59;41.23;;;19.03;;
74064;SDS011;62421;51.412;5.432;2022-12-04T14:23:38;42.83;;;19.70;;
74064;SDS011;62421;51.412;5.432;2022-12-04T14:26:17;44.37;;;19.53;;
74064;SDS011;62421;51.412;5.432;2022-12-04T14:28:45;40.83;;;18.90;;
74064;SDS011;62421;51.412;5.432;2022-12-04T14:31:19;44.93;;;20.27;;
74064;SDS011;62421;51.412;5.432;2022-12-04T14:33:57;45.10;;;20.70;;
74064;SDS011;62421;51.412;5.432;2022-12-04T14:36:26;42.50;;;20.42;;
74064;SDS011;62421;51.412;5.432;2022-12-04T14:39:03;44.33;;;22.07;;
74064;SDS011;62421;51.412;5.432;2022-12-04T14:41:32;45.65;;;23.63;;
74064;SDS011;62421;51.412;5.432;2022-12-04T14:43:58;44.95;;;19.33;;
74064;SDS011;62421;51.412;5.432;2022-12-04T14:46:33;47.45;;;27.30;;
74064;SDS011;62421;51.412;5.432;2022-12-04T15:00:18;38.85;;;19.15;;
74064;SDS011;62421;51.412;5.432;2022-12-04T15:02:52;40.38;;;19.65;;
74064;SDS011;62421;51.412;5.432;2022-12-04T15:05:23;43.08;;;19.88;;
74064;SDS011;62421;51.412;5.432;2022-12-04T15:07:52;47.08;;;21.58;;
74064;SDS011;62421;51.412;5.432;2022-12-04T15:10:23;36.72;;;19.55;;
74064;SDS011;62421;51.412;5.432;2022-12-04T15:13:09;41.83;;;19.60;;
74064;SDS011;62421;51.412;5.432;2022-12-04T15:15:35;41.83;;;22.27;;
74064;SDS011;62421;51.412;5.432;2022-12-04T15:20:57;39.75;;;22.20;;
74064;SDS011;62421;51.412;5.432;2022-12-04T15:23:38;38.75;;;19.60;;
74064;SDS011;62421;51.412;5.432;2022-12-04T15:26:09;42.88;;;19.20;;
74064;SDS011;62421;51.412;5.432;2022-12-04T15:28:42;44.00;;;24.63;;
74064;SDS011;62421;51.412;5.432;2022-12-04T15:33:57;42.65;;;21.02;;
74064;SDS011;62421;51.412;5.432;2022-12-04T15:36:36;44.70;;;22.90;;
74064;SDS011;62421;51.412;5.432;2022-12-04T15:39:19;46.17;;;23.38;;
74064;SDS011;62421;51.412;5.432;2022-12-04T15:41:49;45.63;;;20.00;;
74064;SDS011;62421;51.412;5.432;2022-12-04T15:44:28;45.05;;;22.15;;
74064;SDS011;62421;51.412;5.432;2022-12-04T15:46:56;43.07;;;18.70;;
74064;SDS011;62421;51.412;5.432;2022-12-04T15:49:25;39.08;;;21.42;;
74064;SDS011;62421;51.412;5.432;2022-12-04T15:52:11;40.40;;;18.25;;
74064;SDS011;62421;51.412;5.432;2022-12-04T15:54:42;44.40;;;22.65;;
74064;SDS011;62421;51.412;5.432;2022-12-04T15:57:16;38.47;;;18.45;;
74064;SDS011;62421;51.412;5.432;2022-12-04T15:59:51;38.63;;;19.42;;
74064;SDS011;62421;51.412;5.432;2022-12-04T16:02:23;41.00;;;20.00;;
74064;SDS011;62421;51.412;5.432;2022-12-04T16:04:52;37.03;;;18.03;;
74064;SDS011;62421;51.412;5.432;2022-12-04T16:07:19;43.05;;;20.92;;
74064;SDS011;62421;51.412;5.432;2022-12-04T16:09:55;38.33;;;18.23;;
74064;SDS011;62421;51.412;5.432;2022-12-04T16:12:26;42.92;;;20.00;;
74064;SDS011;62421;51.412;5.432;2022-12-04T16:14:53;38.60;;;17.73;;
74064;SDS011;62421;51.412;5.432;2022-12-04T16:17:21;38.28;;;18.25;;
74064;SDS011;62421;51.412;5.432;2022-12-04T16:19:50;41.13;;;19.70;;
74064;SDS011;62421;51.412;5.432;2022-12-04T16:22:16;41.40;;;19.60;;
74064;SDS011;62421;51.412;5.432;2022-12-04T16:24:45;42.03;;;18.98;;
74064;SDS011;62421;51.412;5.432;2022-12-04T16:27:13;40.72;;;20.85;;
74064;SDS011;62421;51.412;5.432;2022-12-04T16:29:40;45.30;;;25.65;;
74064;SDS011;62421;51.412;5.432;2022-12-04T16:32:05;43.83;;;18.80;;
74064;SDS011;62421;51.412;5.432;2022-12-04T16:34:36;44.63;;;23.58;;
74064;SDS011;62421;51.412;5.432;2022-12-04T16:37:05;33.87;;;17.43;;
74064;SDS011;62421;51.412;5.432;2022-12-04T16:39:38;45.40;;;23.20;;
74064;SDS011;62421;51.412;5.432;2022-12-04T16:42:03;36.83;;;16.93;;
74064;SDS011;62421;51.412;5.432;2022-12-04T16:44:28;42.53;;;20.57;;
74064;SDS011;62421;51.412;5.432;2022-12-04T16:46:54;36.07;;;18.03;;
74064;SDS011;62421;51.412;5.432;2022-12-04T16:49:19;37.20;;;17.53;;
74064;SDS011;62421;51.412;5.432;2022-12-04T16:51:45;38.23;;;18.37;;